sensor_id;sensor_type;location;lat;lon;timestamp;pressure;altitude;pressure_sealevel;temperature;humidity
46690;BME280;32423;45.398;10.874;2023-05-20T00:01:04;100897.97;;;16.96;71.73
46690;BME280;32423;45.398;10.874;2023-05-20T00:03:56;100898.31;;;17.10;70.67
46690;BME280;32423;45.398;10.874;2023-05-20T00:06:48;100898.84;;;17.32;68.03
46690;BME280;32423;45.398;10.874;2023-05-20T00:09:40;100902.75;;;17.31;67.15
46690;BME280;32423;45.398;10.874;2023-05-20T00:12:32;100885.88;;;17.32;66.13
46690;BME280;32423;45.398;10.874;2023-05-20T00:15:24;100879.88;;;17.27;65.69
46690;BME280;32423;45.398;10.874;2023-05-20T00:18:15;100878.00;;;17.31;65.26
46690;BME280;32423;45.398;10.874;2023-05-20T00:21:07;100882.44;;;17.20;64.74
46690;BME280;32423;45.398;10.874;2023-05-20T00:23:59;100883.97;;;17.01;65.09
46690;BME280;32423;45.398;10.874;2023-05-20T00:26:51;100876.41;;;16.83;66.14
46690;BME280;32423;45.398;10.874;2023-05-20T00:29:43;100876.75;;;16.81;64.83
46690;BME280;32423;45.398;10.874;2023-05-20T00:32:35;100871.09;;;16.74;64.37
46690;BME280;32423;45.398;10.874;2023-05-20T00:35:25;100873.66;;;16.98;64.47
46690;BME280;32423;45.398;10.874;2023-05-20T00:38:17;100860.38;;;17.00;64.04
46690;BME280;32423;45.398;10.874;2023-05-20T00:41:08;100858.00;;;16.99;63.15
46690;BME280;32423;45.398;10.874;2023-05-20T00:44:00;100858.31;;;16.66;63.22
46690;BME280;32423;45.398;10.874;2023-05-20T00:46:50;100854.47;;;16.55;64.18
46690;BME280;32423;45.398;10.874;2023-05-20T00:49:42;100851.72;;;16.55;63.41
46690;BME280;32423;45.398;10.874;2023-05-20T00:52:34;100856.69;;;16.49;64.31
46690;BME280;32423;45.398;10.874;2023-05-20T00:55:24;100852.03;;;16.38;64.33
46690;BME280;32423;45.398;10.874;2023-05-20T00:58:13;100860.19;;;16.34;64.58
46690;BME280;32423;45.398;10.874;2023-05-20T01:01:03;100861.78;;;16.35;64.90
46690;BME280;32423;45.398;10.874;2023-05-20T01:03:55;100860.63;;;16.36;64.86
46690;BME280;32423;45.398;10.874;2023-05-20T01:06:47;100862.13;;;16.34;64.79
46690;BME280;32423;45.398;10.874;2023-05-20T01:09:39;100860.28;;;16.38;64.75
46690;BME280;32423;45.398;10.874;2023-05-20T01:12:42;100855.81;;;16.61;64.64
46690;BME280;32423;45.398;10.874;2023-05-20T01:15:36;100849.13;;;16.74;64.15
46690;BME280;32423;45.398;10.874;2023-05-20T01:18:31;100843.28;;;16.76;63.40
46690;BME280;32423;45.398;10.874;2023-05-20T01:21:22;100838.75;;;16.83;63.31
46690;BME280;32423;45.398;10.874;2023-05-20T01:24:13;100831.84;;;16.89;63.31
46690;BME280;32423;45.398;10.874;2023-05-20T01:27:03;100828.22;;;16.85;62.80
46690;BME280;32423;45.398;10.874;2023-05-20T01:29:55;100829.69;;;16.67;63.41
46690;BME280;32423;45.398;10.874;2023-05-20T01:32:50;100830.59;;;16.71;64.83
46690;BME280;32423;45.398;10.874;2023-05-20T01:35:43;100837.59;;;16.68;66.76
46690;BME280;32423;45.398;10.874;2023-05-20T01:38:37;100836.59;;;16.61;66.79
46690;BME280;32423;45.398;10.874;2023-05-20T01:41:30;100827.41;;;16.69;66.85
46690;BME280;32423;45.398;10.874;2023-05-20T01:44:23;100823.34;;;16.79;66.04
46690;BME280;32423;45.398;10.874;2023-05-20T01:47:15;100819.88;;;16.82;65.13
46690;BME280;32423;45.398;10.874;2023-05-20T01:50:07;100815.72;;;16.72;65.55
46690;BME280;32423;45.398;10.874;2023-05-20T01:52:57;100810.66;;;16.74;65.45
46690;BME280;32423;45.398;10.874;2023-05-20T01:55:49;100796.16;;;16.74;64.93
46690;BME280;32423;45.398;10.874;2023-05-20T01:58:41;100797.09;;;16.81;64.77
46690;BME280;32423;45.398;10.874;2023-05-20T02:01:33;100785.94;;;17.05;64.56
46690;BME280;32423;45.398;10.874;2023-05-20T02:04:25;100788.75;;;17.09;64.45
46690;BME280;32423;45.398;10.874;2023-05-20T02:07:15;100792.47;;;17.17;65.68
46690;BME280;32423;45.398;10.874;2023-05-20T02:10:07;100789.81;;;17.20;65.89
46690;BME280;32423;45.398;10.874;2023-05-20T02:12:59;100793.50;;;17.28;66.95
46690;BME280;32423;45.398;10.874;2023-05-20T02:15:51;100787.47;;;17.22;67.14
46690;BME280;32423;45.398;10.874;2023-05-20T02:18:44;100788.22;;;17.03;68.05
46690;BME280;32423;45.398;10.874;2023-05-20T02:21:37;100788.56;;;17.02;67.67
46690;BME280;32423;45.398;10.874;2023-05-20T02:24:30;100779.84;;;16.96;68.05
46690;BME280;32423;45.398;10.874;2023-05-20T02:27:22;100783.63;;;16.76;67.77
46690;BME280;32423;45.398;10.874;2023-05-20T02:30:14;100778.06;;;16.73;69.02
46690;BME280;32423;45.398;10.874;2023-05-20T02:33:06;100776.47;;;16.72;68.89
46690;BME280;32423;45.398;10.874;2023-05-20T02:35:58;100776.66;;;16.63;68.99
46690;BME280;32423;45.398;10.874;2023-05-20T02:38:50;100771.06;;;16.91;69.49
46690;BME280;32423;45.398;10.874;2023-05-20T02:41:42;100778.78;;;17.01;69.07
46690;BME280;32423;45.398;10.874;2023-05-20T02:44:34;100778.31;;;16.99;69.83
46690;BME280;32423;45.398;10.874;2023-05-20T02:47:26;100777.41;;;17.10;68.70
46690;BME280;32423;45.398;10.874;2023-05-20T02:50:18;100769.47;;;16.90;69.23
46690;BME280;32423;45.398;10.874;2023-05-20T02:53:10;100770.16;;;16.71;70.64
46690;BME280;32423;45.398;10.874;2023-05-20T02:56:02;100761.84;;;16.83;70.65
46690;BME280;32423;45.398;10.874;2023-05-20T02:58:54;100753.06;;;16.93;69.78
46690;BME280;32423;45.398;10.874;2023-05-20T03:01:46;100752.28;;;16.77;70.46
46690;BME280;32423;45.398;10.874;2023-05-20T03:04:38;100748.38;;;16.78;70.38
46690;BME280;32423;45.398;10.874;2023-05-20T03:07:30;100749.25;;;16.35;71.63
46690;BME280;32423;45.398;10.874;2023-05-20T03:10:22;100750.22;;;16.43;72.62
46690;BME280;32423;45.398;10.874;2023-05-20T03:13:11;100747.94;;;16.45;71.26
46690;BME280;32423;45.398;10.874;2023-05-20T03:16:03;100750.16;;;16.55;70.24
46690;BME280;32423;45.398;10.874;2023-05-20T03:18:55;100745.31;;;16.64;71.08
46690;BME280;32423;45.398;10.874;2023-05-20T03:21:47;100741.94;;;16.86;70.70
46690;BME280;32423;45.398;10.874;2023-05-20T03:24:39;100739.94;;;17.02;69.57
46690;BME280;32423;45.398;10.874;2023-05-20T03:27:33;100746.94;;;17.00;69.99
46690;BME280;32423;45.398;10.874;2023-05-20T03:30:25;100739.69;;;16.92;69.91
46690;BME280;32423;45.398;10.874;2023-05-20T03:33:17;100740.75;;;16.87;71.07
46690;BME280;32423;45.398;10.874;2023-05-20T03:36:09;100734.97;;;16.92;69.98
46690;BME280;32423;45.398;10.874;2023-05-20T03:38:58;100725.16;;;16.91;70.74
46690;BME280;32423;45.398;10.874;2023-05-20T03:41:51;100733.22;;;17.00;70.24
46690;BME280;32423;45.398;10.874;2023-05-20T03:44:43;100735.81;;;17.12;68.66
46690;BME280;32423;45.398;10.874;2023-05-20T03:47:36;100745.63;;;16.94;69.31
46690;BME280;32423;45.398;10.874;2023-05-20T03:50:27;100737.56;;;17.01;69.21
46690;BME280;32423;45.398;10.874;2023-05-20T03:53:17;100740.38;;;17.04;69.56
46690;BME280;32423;45.398;10.874;2023-05-20T03:56:09;100730.97;;;17.05;70.15
46690;BME280;32423;45.398;10.874;2023-05-20T03:59:01;100734.34;;;16.99;69.31
46690;BME280;32423;45.398;10.874;2023-05-20T04:01:53;100738.09;;;16.91;70.06
46690;BME280;32423;45.398;10.874;2023-05-20T04:04:45;100739.50;;;17.00;70.13
46690;BME280;32423;45.398;10.874;2023-05-20T04:07:35;100736.03;;;17.03;70.48
46690;BME280;32423;45.398;10.874;2023-05-20T04:10:27;100733.28;;;17.03;70.51
46690;BME280;32423;45.398;10.874;2023-05-20T04:13:19;100730.47;;;17.00;70.68
46690;BME280;32423;45.398;10.874;2023-05-20T04:16:11;100726.19;;;17.02;70.68
46690;BME280;32423;45.398;10.874;2023-05-20T04:18:58;100725.31;;;16.98;71.17
46690;BME280;32423;45.398;10.874;2023-05-20T04:21:48;100724.00;;;16.92;70.39
46690;BME280;32423;45.398;10.874;2023-05-20T04:24:36;100726.75;;;16.92;70.66
46690;BME280;32423;45.398;10.874;2023-05-20T04:27:28;100728.06;;;16.98;71.10
46690;BME280;32423;45.398;10.874;2023-05-20T04:30:18;100731.69;;;17.02;71.23
46690;BME280;32423;45.398;10.874;2023-05-20T04:33:10;100726.94;;;17.19;70.27
46690;BME280;32423;45.398;10.874;2023-05-20T04:36:02;100730.16;;;17.21;70.25
46690;BME280;32423;45.398;10.874;2023-05-20T04:38:55;100727.81;;;17.23;69.78
46690;BME280;32423;45.398;10.874;2023-05-20T04:41:44;100722.97;;;17.16;70.03
46690;BME280;32423;45.398;10.874;2023-05-20T04:44:37;100716.16;;;17.10;71.03
46690;BME280;32423;45.398;10.874;2023-05-20T04:47:27;100718.69;;;17.19;71.25
46690;BME280;32423;45.398;10.874;2023-05-20T04:50:18;100721.03;;;17.17;70.92
46690;BME280;32423;45.398;10.874;2023-05-20T04:53:07;100706.91;;;16.83;73.46
46690;BME280;32423;45.398;10.874;2023-05-20T04:55:59;100712.50;;;16.71;74.08
46690;BME280;32423;45.398;10.874;2023-05-20T04:58:51;100702.69;;;16.54;75.34
46690;BME280;32423;45.398;10.874;2023-05-20T05:01:44;100692.66;;;16.46;75.54
46690;BME280;32423;45.398;10.874;2023-05-20T05:04:37;100691.97;;;16.49;75.19
46690;BME280;32423;45.398;10.874;2023-05-20T05:07:29;100686.09;;;16.51;74.91
46690;BME280;32423;45.398;10.874;2023-05-20T05:10:21;100689.75;;;16.55;74.81
46690;BME280;32423;45.398;10.874;2023-05-20T05:13:13;100681.94;;;16.57;75.00
46690;BME280;32423;45.398;10.874;2023-05-20T05:16:06;100683.03;;;16.68;75.20
46690;BME280;32423;45.398;10.874;2023-05-20T05:18:55;100676.44;;;16.57;75.15
46690;BME280;32423;45.398;10.874;2023-05-20T05:21:48;100676.38;;;16.53;76.32
46690;BME280;32423;45.398;10.874;2023-05-20T05:24:40;100687.66;;;16.64;75.85
46690;BME280;32423;45.398;10.874;2023-05-20T05:27:32;100677.59;;;16.56;76.84
46690;BME280;32423;45.398;10.874;2023-05-20T05:30:24;100673.13;;;16.63;76.74
46690;BME280;32423;45.398;10.874;2023-05-20T05:33:16;100670.53;;;16.55;77.45
46690;BME280;32423;45.398;10.874;2023-05-20T05:36:08;100658.66;;;16.51;78.10
46690;BME280;32423;45.398;10.874;2023-05-20T05:39:01;100660.69;;;16.54;78.16
46690;BME280;32423;45.398;10.874;2023-05-20T05:41:53;100659.81;;;16.50;77.98
46690;BME280;32423;45.398;10.874;2023-05-20T05:44:45;100653.81;;;16.60;77.64
46690;BME280;32423;45.398;10.874;2023-05-20T05:47:37;100658.22;;;16.80;76.94
46690;BME280;32423;45.398;10.874;2023-05-20T05:50:30;100656.03;;;16.89;77.27
46690;BME280;32423;45.398;10.874;2023-05-20T05:53:21;100655.88;;;16.82;77.92
46690;BME280;32423;45.398;10.874;2023-05-20T05:56:14;100659.63;;;16.74;77.80
46690;BME280;32423;45.398;10.874;2023-05-20T05:59:06;100659.72;;;16.62;77.86
46690;BME280;32423;45.398;10.874;2023-05-20T06:01:55;100667.00;;;16.70;77.87
46690;BME280;32423;45.398;10.874;2023-05-20T06:04:47;100662.28;;;16.86;76.44
46690;BME280;32423;45.398;10.874;2023-05-20T06:07:37;100661.72;;;16.96;76.08
46690;BME280;32423;45.398;10.874;2023-05-20T06:10:30;100661.31;;;16.79;77.83
46690;BME280;32423;45.398;10.874;2023-05-20T06:13:20;100669.81;;;16.74;79.69
46690;BME280;32423;45.398;10.874;2023-05-20T06:16:09;100666.00;;;16.78;78.90
46690;BME280;32423;45.398;10.874;2023-05-20T06:19:01;100664.56;;;16.84;78.84
46690;BME280;32423;45.398;10.874;2023-05-20T06:21:53;100659.44;;;16.83;78.60
46690;BME280;32423;45.398;10.874;2023-05-20T06:24:46;100666.34;;;16.77;78.00
46690;BME280;32423;45.398;10.874;2023-05-20T06:27:38;100676.09;;;16.74;78.30
46690;BME280;32423;45.398;10.874;2023-05-20T06:30:30;100670.94;;;16.88;78.78
46690;BME280;32423;45.398;10.874;2023-05-20T06:33:22;100678.13;;;16.77;81.10
46690;BME280;32423;45.398;10.874;2023-05-20T06:36:14;100678.94;;;16.78;80.37
46690;BME280;32423;45.398;10.874;2023-05-20T06:39:06;100674.25;;;16.97;79.31
46690;BME280;32423;45.398;10.874;2023-05-20T06:42:01;100670.59;;;17.09;77.61
46690;BME280;32423;45.398;10.874;2023-05-20T06:44:52;100670.66;;;17.13;76.66
46690;BME280;32423;45.398;10.874;2023-05-20T06:47:54;100671.97;;;17.19;74.70
46690;BME280;32423;45.398;10.874;2023-05-20T06:50:46;100674.50;;;17.27;73.38
46690;BME280;32423;45.398;10.874;2023-05-20T06:53:38;100678.56;;;17.33;72.56
46690;BME280;32423;45.398;10.874;2023-05-20T06:56:29;100683.72;;;17.35;73.70
46690;BME280;32423;45.398;10.874;2023-05-20T06:59:19;100676.25;;;17.16;76.08
46690;BME280;32423;45.398;10.874;2023-05-20T07:02:06;100685.88;;;17.26;75.03
46690;BME280;32423;45.398;10.874;2023-05-20T07:04:55;100680.03;;;17.46;74.61
46690;BME280;32423;45.398;10.874;2023-05-20T07:07:48;100681.97;;;17.84;74.28
46690;BME280;32423;45.398;10.874;2023-05-20T07:10:41;100701.41;;;17.72;71.59
46690;BME280;32423;45.398;10.874;2023-05-20T07:13:33;100690.97;;;18.04;71.82
46690;BME280;32423;45.398;10.874;2023-05-20T07:16:26;100685.22;;;18.35;71.16
46690;BME280;32423;45.398;10.874;2023-05-20T07:19:16;100676.38;;;18.72;69.81
46690;BME280;32423;45.398;10.874;2023-05-20T07:22:08;100676.59;;;18.86;69.79
46690;BME280;32423;45.398;10.874;2023-05-20T07:25:11;100671.72;;;19.02;68.38
46690;BME280;32423;45.398;10.874;2023-05-20T07:28:01;100674.59;;;19.13;68.59
46690;BME280;32423;45.398;10.874;2023-05-20T07:30:53;100677.81;;;18.89;64.70
46690;BME280;32423;45.398;10.874;2023-05-20T07:33:47;100674.84;;;18.74;65.14
46690;BME280;32423;45.398;10.874;2023-05-20T07:36:39;100672.00;;;18.67;64.97
46690;BME280;32423;45.398;10.874;2023-05-20T07:39:29;100672.09;;;18.74;66.25
46690;BME280;32423;45.398;10.874;2023-05-20T07:42:22;100664.41;;;18.61;66.87
46690;BME280;32423;45.398;10.874;2023-05-20T07:45:17;100660.00;;;18.56;67.81
46690;BME280;32423;45.398;10.874;2023-05-20T07:48:09;100658.84;;;18.57;68.97
46690;BME280;32423;45.398;10.874;2023-05-20T07:51:01;100663.06;;;18.51;71.35
46690;BME280;32423;45.398;10.874;2023-05-20T07:53:54;100666.38;;;18.37;71.22
46690;BME280;32423;45.398;10.874;2023-05-20T07:56:46;100669.66;;;18.69;69.97
46690;BME280;32423;45.398;10.874;2023-05-20T07:59:38;100664.22;;;18.73;67.31
46690;BME280;32423;45.398;10.874;2023-05-20T08:02:25;100661.84;;;19.01;67.51
46690;BME280;32423;45.398;10.874;2023-05-20T08:05:14;100661.47;;;19.03;66.06
46690;BME280;32423;45.398;10.874;2023-05-20T08:08:06;100663.94;;;19.11;66.01
46690;BME280;32423;45.398;10.874;2023-05-20T08:11:07;100666.22;;;19.06;66.72
46690;BME280;32423;45.398;10.874;2023-05-20T08:13:59;100675.47;;;19.20;65.90
46690;BME280;32423;45.398;10.874;2023-05-20T08:16:51;100680.41;;;19.04;64.03
46690;BME280;32423;45.398;10.874;2023-05-20T08:19:40;100684.81;;;19.09;65.05
46690;BME280;32423;45.398;10.874;2023-05-20T08:22:33;100690.78;;;19.14;63.90
46690;BME280;32423;45.398;10.874;2023-05-20T08:25:26;100693.25;;;19.23;63.96
46690;BME280;32423;45.398;10.874;2023-05-20T08:28:18;100697.28;;;19.29;63.34
46690;BME280;32423;45.398;10.874;2023-05-20T08:31:07;100703.81;;;19.17;63.53
46690;BME280;32423;45.398;10.874;2023-05-20T08:34:00;100703.81;;;18.91;65.38
46690;BME280;32423;45.398;10.874;2023-05-20T08:36:53;100710.97;;;18.69;66.10
46690;BME280;32423;45.398;10.874;2023-05-20T08:39:45;100717.75;;;18.75;65.77
46690;BME280;32423;45.398;10.874;2023-05-20T08:42:37;100718.69;;;18.60;67.91
46690;BME280;32423;45.398;10.874;2023-05-20T08:45:35;100713.50;;;18.55;66.96
46690;BME280;32423;45.398;10.874;2023-05-20T08:48:30;100712.13;;;18.46;66.75
46690;BME280;32423;45.398;10.874;2023-05-20T08:51:23;100709.50;;;18.53;67.97
46690;BME280;32423;45.398;10.874;2023-05-20T08:54:16;100716.78;;;18.64;66.63
46690;BME280;32423;45.398;10.874;2023-05-20T08:57:09;100711.41;;;18.49;65.42
46690;BME280;32423;45.398;10.874;2023-05-20T09:00:03;100721.47;;;18.60;67.59
46690;BME280;32423;45.398;10.874;2023-05-20T09:02:57;100721.22;;;18.69;67.38
46690;BME280;32423;45.398;10.874;2023-05-20T09:05:49;100719.66;;;18.71;67.10
46690;BME280;32423;45.398;10.874;2023-05-20T09:08:40;100722.16;;;18.54;67.46
46690;BME280;32423;45.398;10.874;2023-05-20T09:11:32;100720.44;;;18.49;68.45
46690;BME280;32423;45.398;10.874;2023-05-20T09:14:24;100723.81;;;18.58;67.78
46690;BME280;32423;45.398;10.874;2023-05-20T09:17:16;100726.25;;;18.63;67.83
46690;BME280;32423;45.398;10.874;2023-05-20T09:20:08;100728.69;;;18.68;68.44
46690;BME280;32423;45.398;10.874;2023-05-20T09:23:00;100733.13;;;18.76;68.23
46690;BME280;32423;45.398;10.874;2023-05-20T09:25:48;100733.00;;;18.69;68.57
46690;BME280;32423;45.398;10.874;2023-05-20T09:28:40;100729.63;;;18.79;68.63
46690;BME280;32423;45.398;10.874;2023-05-20T09:31:29;100736.56;;;18.70;68.88
46690;BME280;32423;45.398;10.874;2023-05-20T09:34:22;100728.91;;;18.83;68.53
46690;BME280;32423;45.398;10.874;2023-05-20T09:37:13;100726.88;;;18.79;68.28
46690;BME280;32423;45.398;10.874;2023-05-20T09:40:08;100724.81;;;18.73;68.27
46690;BME280;32423;45.398;10.874;2023-05-20T09:43:02;100723.19;;;18.68;68.44
46690;BME280;32423;45.398;10.874;2023-05-20T09:45:55;100724.28;;;18.90;67.87
46690;BME280;32423;45.398;10.874;2023-05-20T09:48:47;100726.03;;;19.02;68.06
46690;BME280;32423;45.398;10.874;2023-05-20T09:51:37;100722.34;;;19.20;67.26
46690;BME280;32423;45.398;10.874;2023-05-20T09:54:29;100723.88;;;19.14;68.47
46690;BME280;32423;45.398;10.874;2023-05-20T09:57:21;100721.88;;;19.15;68.63
46690;BME280;32423;45.398;10.874;2023-05-20T10:00:14;100719.31;;;18.99;67.29
46690;BME280;32423;45.398;10.874;2023-05-20T10:03:06;100718.59;;;19.06;66.50
46690;BME280;32423;45.398;10.874;2023-05-20T10:06:16;100714.31;;;19.08;67.49
46690;BME280;32423;45.398;10.874;2023-05-20T10:12:06;100711.16;;;19.10;67.57
46690;BME280;32423;45.398;10.874;2023-05-20T10:20:55;100700.22;;;19.43;65.86
46690;BME280;32423;45.398;10.874;2023-05-20T10:23:47;100698.75;;;19.23;67.57
46690;BME280;32423;45.398;10.874;2023-05-20T10:26:39;100698.84;;;19.30;67.52
46690;BME280;32423;45.398;10.874;2023-05-20T10:29:29;100700.88;;;19.33;66.43
46690;BME280;32423;45.398;10.874;2023-05-20T10:32:31;100688.53;;;19.23;67.87
46690;BME280;32423;45.398;10.874;2023-05-20T10:35:24;100677.13;;;19.25;68.40
46690;BME280;32423;45.398;10.874;2023-05-20T10:38:17;100677.69;;;19.08;68.01
46690;BME280;32423;45.398;10.874;2023-05-20T10:41:06;100681.00;;;19.20;66.58
46690;BME280;32423;45.398;10.874;2023-05-20T10:44:00;100662.66;;;19.35;66.56
46690;BME280;32423;45.398;10.874;2023-05-20T10:46:48;100662.28;;;19.37;64.89
46690;BME280;32423;45.398;10.874;2023-05-20T10:49:52;100669.13;;;19.46;65.17
46690;BME280;32423;45.398;10.874;2023-05-20T10:52:44;100657.94;;;19.66;61.93
46690;BME280;32423;45.398;10.874;2023-05-20T10:55:35;100652.03;;;19.67;62.69
46690;BME280;32423;45.398;10.874;2023-05-20T10:58:35;100633.84;;;19.62;61.93
46690;BME280;32423;45.398;10.874;2023-05-20T11:01:26;100636.75;;;19.77;61.46
46690;BME280;32423;45.398;10.874;2023-05-20T11:04:16;100638.81;;;19.87;61.98
46690;BME280;32423;45.398;10.874;2023-05-20T11:07:08;100637.28;;;19.89;60.12
46690;BME280;32423;45.398;10.874;2023-05-20T11:10:00;100633.66;;;19.82;59.95
46690;BME280;32423;45.398;10.874;2023-05-20T11:12:50;100640.41;;;19.88;62.64
46690;BME280;32423;45.398;10.874;2023-05-20T11:15:41;100635.78;;;19.99;62.28
46690;BME280;32423;45.398;10.874;2023-05-20T11:18:34;100648.44;;;20.03;61.83
46690;BME280;32423;45.398;10.874;2023-05-20T11:21:26;100630.06;;;19.78;61.37
46690;BME280;32423;45.398;10.874;2023-05-20T11:24:27;100623.31;;;19.72;59.27
46690;BME280;32423;45.398;10.874;2023-05-20T11:27:19;100626.84;;;19.69;60.49
46690;BME280;32423;45.398;10.874;2023-05-20T11:30:10;100626.69;;;19.54;61.70
46690;BME280;32423;45.398;10.874;2023-05-20T11:33:02;100625.88;;;19.50;61.05
46690;BME280;32423;45.398;10.874;2023-05-20T11:35:51;100634.06;;;19.47;60.65
46690;BME280;32423;45.398;10.874;2023-05-20T11:38:44;100630.44;;;19.39;60.20
46690;BME280;32423;45.398;10.874;2023-05-20T11:41:36;100624.03;;;19.32;59.52
46690;BME280;32423;45.398;10.874;2023-05-20T11:44:28;100631.03;;;19.26;60.35
46690;BME280;32423;45.398;10.874;2023-05-20T11:47:23;100631.22;;;19.10;60.02
46690;BME280;32423;45.398;10.874;2023-05-20T11:50:19;100641.03;;;19.04;60.48
46690;BME280;32423;45.398;10.874;2023-05-20T11:53:09;100635.28;;;18.90;61.32
46690;BME280;32423;45.398;10.874;2023-05-20T11:55:57;100645.44;;;18.82;60.90
46690;BME280;32423;45.398;10.874;2023-05-20T11:58:47;100651.75;;;18.83;61.06
46690;BME280;32423;45.398;10.874;2023-05-20T12:01:36;100657.16;;;18.75;62.49
46690;BME280;32423;45.398;10.874;2023-05-20T12:04:26;100647.56;;;18.66;62.21
46690;BME280;32423;45.398;10.874;2023-05-20T12:07:17;100635.81;;;18.69;62.65
46690;BME280;32423;45.398;10.874;2023-05-20T12:10:09;100631.50;;;18.71;63.04
46690;BME280;32423;45.398;10.874;2023-05-20T12:12:59;100633.94;;;18.76;62.84
46690;BME280;32423;45.398;10.874;2023-05-20T12:15:48;100652.41;;;18.72;63.06
46690;BME280;32423;45.398;10.874;2023-05-20T12:18:38;100661.81;;;18.71;63.44
46690;BME280;32423;45.398;10.874;2023-05-20T12:21:30;100654.84;;;18.77;62.85
46690;BME280;32423;45.398;10.874;2023-05-20T12:24:22;100648.19;;;18.82;62.70
46690;BME280;32423;45.398;10.874;2023-05-20T12:27:14;100650.47;;;18.76;63.59
46690;BME280;32423;45.398;10.874;2023-05-20T12:30:06;100655.78;;;18.89;62.96
46690;BME280;32423;45.398;10.874;2023-05-20T12:32:58;100651.31;;;18.80;62.58
46690;BME280;32423;45.398;10.874;2023-05-20T12:35:48;100672.31;;;18.89;62.50
46690;BME280;32423;45.398;10.874;2023-05-20T12:38:39;100665.94;;;18.85;62.68
46690;BME280;32423;45.398;10.874;2023-05-20T12:41:31;100660.81;;;18.83;62.88
46690;BME280;32423;45.398;10.874;2023-05-20T12:44:23;100658.56;;;18.92;63.00
46690;BME280;32423;45.398;10.874;2023-05-20T12:47:15;100657.09;;;18.98;62.54
46690;BME280;32423;45.398;10.874;2023-05-20T12:50:07;100653.94;;;19.00;62.60
46690;BME280;32423;45.398;10.874;2023-05-20T12:52:57;100649.34;;;19.07;61.86
46690;BME280;32423;45.398;10.874;2023-05-20T12:55:49;100659.41;;;18.96;61.57
46690;BME280;32423;45.398;10.874;2023-05-20T12:58:42;100657.97;;;19.06;61.30
46690;BME280;32423;45.398;10.874;2023-05-20T13:01:34;100656.91;;;19.14;61.65
46690;BME280;32423;45.398;10.874;2023-05-20T13:04:21;100655.72;;;19.15;61.45
46690;BME280;32423;45.398;10.874;2023-05-20T13:07:12;100657.78;;;19.21;61.44
46690;BME280;32423;45.398;10.874;2023-05-20T13:10:02;100654.69;;;19.27;60.88
46690;BME280;32423;45.398;10.874;2023-05-20T13:12:54;100652.28;;;19.25;62.10
46690;BME280;32423;45.398;10.874;2023-05-20T13:15:47;100646.09;;;19.32;62.45
46690;BME280;32423;45.398;10.874;2023-05-20T13:18:39;100642.97;;;19.33;61.92
46690;BME280;32423;45.398;10.874;2023-05-20T13:21:31;100648.03;;;19.31;61.57
46690;BME280;32423;45.398;10.874;2023-05-20T13:24:23;100645.38;;;19.38;61.61
46690;BME280;32423;45.398;10.874;2023-05-20T13:27:13;100640.75;;;19.46;61.08
46690;BME280;32423;45.398;10.874;2023-05-20T13:30:05;100649.44;;;19.44;61.44
46690;BME280;32423;45.398;10.874;2023-05-20T13:32:57;100638.47;;;19.51;60.50
46690;BME280;32423;45.398;10.874;2023-05-20T13:35:49;100640.81;;;19.49;60.97
46690;BME280;32423;45.398;10.874;2023-05-20T13:38:41;100641.63;;;19.50;61.07
46690;BME280;32423;45.398;10.874;2023-05-20T13:41:33;100641.56;;;19.46;61.05
46690;BME280;32423;45.398;10.874;2023-05-20T13:44:25;100652.31;;;19.55;60.73
46690;BME280;32423;45.398;10.874;2023-05-20T13:47:15;100646.66;;;19.44;61.88
46690;BME280;32423;45.398;10.874;2023-05-20T13:50:07;100646.34;;;19.49;61.01
46690;BME280;32423;45.398;10.874;2023-05-20T13:52:57;100636.09;;;19.50;60.76
46690;BME280;32423;45.398;10.874;2023-05-20T13:55:47;100641.97;;;19.48;61.18
46690;BME280;32423;45.398;10.874;2023-05-20T13:58:39;100641.63;;;19.50;61.70
46690;BME280;32423;45.398;10.874;2023-05-20T14:01:29;100638.78;;;19.46;61.87
46690;BME280;32423;45.398;10.874;2023-05-20T14:04:21;100638.78;;;19.46;61.57
46690;BME280;32423;45.398;10.874;2023-05-20T14:07:13;100643.25;;;19.54;61.97
46690;BME280;32423;45.398;10.874;2023-05-20T14:10:05;100640.84;;;19.53;62.16
46690;BME280;32423;45.398;10.874;2023-05-20T14:12:57;100639.09;;;19.41;62.50
46690;BME280;32423;45.398;10.874;2023-05-20T14:15:46;100642.41;;;19.50;62.04
46690;BME280;32423;45.398;10.874;2023-05-20T14:18:38;100640.94;;;19.60;61.22
46690;BME280;32423;45.398;10.874;2023-05-20T14:21:30;100644.03;;;19.55;62.29
46690;BME280;32423;45.398;10.874;2023-05-20T14:24:20;100645.66;;;19.59;62.22
46690;BME280;32423;45.398;10.874;2023-05-20T14:27:12;100648.00;;;19.57;62.52
46690;BME280;32423;45.398;10.874;2023-05-20T14:30:04;100647.19;;;19.57;61.90
46690;BME280;32423;45.398;10.874;2023-05-20T14:32:57;100643.25;;;19.54;62.61
46690;BME280;32423;45.398;10.874;2023-05-20T14:35:49;100639.81;;;19.64;63.16
46690;BME280;32423;45.398;10.874;2023-05-20T14:38:38;100634.34;;;19.72;62.28
46690;BME280;32423;45.398;10.874;2023-05-20T14:41:30;100634.06;;;19.84;62.08
46690;BME280;32423;45.398;10.874;2023-05-20T14:44:21;100633.63;;;19.78;62.40
46690;BME280;32423;45.398;10.874;2023-05-20T14:47:11;100637.97;;;19.79;61.92
46690;BME280;32423;45.398;10.874;2023-05-20T14:50:04;100634.41;;;19.75;61.61
46690;BME280;32423;45.398;10.874;2023-05-20T14:52:54;100637.53;;;19.74;61.37
46690;BME280;32423;45.398;10.874;2023-05-20T14:55:45;100638.72;;;19.76;61.27